Time;durP1;ratioP1;P1;durP2;ratioP2;P2;SDS_P1;SDS_P2;PMS_P1;PMS_P2;Temp;Humidity;BMP_temperature;BMP_pressure;BME280_temperature;BME280_humidity;BME280_pressure;Samples;Min_cycle;Max_cycle;Signal;HPM_P1;HPM_P2
2021/03/05 05:21:26;;;;;;;5.47;1.43;;;-2.10;99.90;;;;;;6195929;23;20187;-82
2021/03/05 05:24:45;;;;;;;5.53;1.67;;;-2.10;99.90;;;;;;6215337;23;20156;-82
2021/03/05 06:23:10;;;;;;;6.90;1.83;;;-2.40;99.90;;;;;;6201035;23;20184;-81
2021/03/05 06:28:21;;;;;;;5.13;1.80;;;-2.30;99.90;;;;;;6212667;23;20243;-82
2021/03/05 06:30:50;;;;;;;7.10;1.67;;;-2.20;99.90;;;;;;6211895;23;20128;-82
2021/03/05 07:10:21;;;;;;;7.73;2.30;;;-1.40;99.90;;;;;;6222440;23;20185;-82
2021/03/05 10:29:05;;;;;;;3.67;0.73;;;5.70;99.90;;;;;;6208991;23;20190;-83
2021/03/05 12:38:23;;;;;;;3.70;0.80;;;7.50;92.60;;;;;;6214613;23;20195;-93
2021/03/05 12:40:49;;;;;;;6.83;1.20;;;7.30;93.20;;;;;;6238760;23;20687;-93
2021/03/05 12:43:15;;;;;;;6.90;1.70;;;7.30;94.70;;;;;;6213789;23;20227;-93
2021/03/05 12:45:40;;;;;;;5.60;1.00;;;7.30;96.00;;;;;;6212859;23;20559;-92
2021/03/05 12:48:06;;;;;;;5.43;0.90;;;7.30;94.80;;;;;;6212777;23;20156;-93
2021/03/05 12:50:32;;;;;;;4.23;0.80;;;7.00;96.00;;;;;;6214067;23;20490;-91
2021/03/05 12:52:57;;;;;;;7.87;1.70;;;7.30;98.00;;;;;;6214070;23;20240;-92
2021/03/05 12:55:23;;;;;;;9.93;2.37;;;7.50;96.60;;;;;;6213755;23;20167;-93
2021/03/05 12:57:49;;;;;;;4.60;0.90;;;7.40;96.70;;;;;;6213183;23;20183;-91
2021/03/05 13:00:15;;;;;;;8.87;1.60;;;7.10;95.80;;;;;;6213617;23;20171;-92
2021/03/05 13:02:41;;;;;;;9.70;1.93;;;7.00;97.20;;;;;;6188724;23;20206;-92
2021/03/05 13:05:07;;;;;;;6.47;1.07;;;7.20;97.90;;;;;;6213831;23;20148;-92
2021/03/05 13:07:33;;;;;;;5.53;1.00;;;7.20;97.50;;;;;;6214202;23;20493;-91
2021/03/05 13:09:59;;;;;;;3.97;0.70;;;7.10;98.10;;;;;;6214345;23;20172;-91
2021/03/05 13:12:24;;;;;;;3.23;0.60;;;7.20;98.10;;;;;;6214246;23;20253;-92
2021/03/05 13:14:50;;;;;;;2.87;0.63;;;7.20;98.80;;;;;;6214263;23;20156;-91
2021/03/05 13:17:15;;;;;;;6.27;1.30;;;7.20;97.70;;;;;;6214436;23;20152;-91
2021/03/05 13:19:41;;;;;;;4.13;0.70;;;7.10;90.30;;;;;;6213537;23;20266;-91
2021/03/05 13:22:07;;;;;;;7.90;2.00;;;6.90;91.50;;;;;;6213343;23;20155;-91
2021/03/05 13:24:32;;;;;;;11.33;2.07;;;6.70;94.00;;;;;;6213262;23;20166;-91
2021/03/05 13:26:58;;;;;;;5.43;1.10;;;6.60;93.90;;;;;;6213372;23;20592;-92
2021/03/05 13:29:23;;;;;;;4.90;1.00;;;6.60;93.20;;;;;;6212448;23;20179;-90
2021/03/05 13:31:50;;;;;;;4.70;1.00;;;6.60;94.10;;;;;;6213092;23;20692;-91
2021/03/05 13:34:16;;;;;;;4.47;0.90;;;6.80;95.00;;;;;;6212743;23;20178;-91
2021/03/05 13:36:42;;;;;;;3.63;0.90;;;6.80;94.30;;;;;;6212377;23;20174;-91
2021/03/05 13:39:08;;;;;;;9.37;1.00;;;6.60;94.60;;;;;;6212559;23;20199;-91
2021/03/05 13:41:33;;;;;;;8.33;1.97;;;6.60;94.60;;;;;;6212935;23;20151;-91
2021/03/05 13:43:59;;;;;;;7.17;1.43;;;6.50;97.20;;;;;;6213441;23;20236;-91
2021/03/05 13:46:25;;;;;;;5.07;1.00;;;6.50;95.70;;;;;;6212608;23;20598;-91
2021/03/05 13:48:51;;;;;;;6.77;0.80;;;6.40;94.20;;;;;;6212681;23;20159;-91
2021/03/05 13:51:16;;;;;;;6.00;1.40;;;6.20;94.00;;;;;;6212773;23;20458;-92
2021/03/05 13:53:42;;;;;;;5.97;0.93;;;6.20;95.80;;;;;;6213295;23;20187;-90
2021/03/05 13:56:08;;;;;;;3.47;0.60;;;6.10;94.70;;;;;;6213058;23;20157;-90
2021/03/05 13:58:33;;;;;;;1.73;0.70;;;6.20;96.40;;;;;;6213419;23;20186;-93
2021/03/05 14:00:59;;;;;;;3.30;0.80;;;6.30;95.10;;;;;;6213433;23;20172;-92
2021/03/05 14:03:24;;;;;;;6.23;1.60;;;6.20;95.70;;;;;;6213341;23;20198;-91
2021/03/05 14:05:52;;;;;;;5.63;1.23;;;6.20;97.90;;;;;;6212999;23;20152;-91
2021/03/05 14:08:17;;;;;;;11.93;3.30;;;6.30;99.30;;;;;;6212949;23;20186;-91
2021/03/05 14:10:43;;;;;;;18.33;5.00;;;6.60;99.50;;;;;;6212967;23;20179;-92
2021/03/05 14:13:08;;;;;;;9.97;2.97;;;6.70;99.90;;;;;;6212217;23;20151;-91
2021/03/05 14:15:34;;;;;;;7.33;2.23;;;6.70;99.90;;;;;;6213154;23;20158;-91
2021/03/05 14:18:02;;;;;;;3.30;0.93;;;6.80;99.90;;;;;;6213676;23;20232;-92
2021/03/05 14:20:29;;;;;;;4.33;0.73;;;6.80;99.70;;;;;;6213810;23;20171;-92
2021/03/05 14:22:55;;;;;;;4.20;1.03;;;6.70;99.20;;;;;;6213777;23;20213;-91
2021/03/05 14:25:21;;;;;;;7.93;2.00;;;6.70;98.40;;;;;;6213696;23;20155;-92
2021/03/05 14:27:50;;;;;;;5.87;1.20;;;6.80;99.00;;;;;;6213650;23;20231;-91
2021/03/05 14:30:16;;;;;;;3.07;0.47;;;6.80;96.80;;;;;;6213645;23;20183;-91
2021/03/05 14:32:42;;;;;;;3.93;0.90;;;6.90;98.90;;;;;;6213533;23;20183;-93
2021/03/05 14:35:08;;;;;;;4.27;1.00;;;7.10;98.20;;;;;;6213720;23;20178;-91
2021/03/05 14:37:33;;;;;;;2.17;0.77;;;7.10;97.40;;;;;;6213743;23;20171;-92
2021/03/05 14:43:21;;;;;;;4.23;1.23;;;7.10;97.30;;;;;;6215380;23;20154;-92
2021/03/05 14:45:47;;;;;;;6.10;0.90;;;7.00;98.00;;;;;;6213555;23;20585;-92
2021/03/05 14:48:12;;;;;;;2.50;0.67;;;6.90;99.40;;;;;;6213795;23;20155;-91
2021/03/05 14:50:38;;;;;;;5.27;0.90;;;6.90;99.70;;;;;;6213462;23;20234;-93
2021/03/05 14:53:04;;;;;;;4.70;1.20;;;7.00;99.90;;;;;;6213892;23;20159;-91
2021/03/05 14:55:29;;;;;;;3.60;0.80;;;6.90;99.70;;;;;;6213856;23;20162;-92
2021/03/05 14:57:55;;;;;;;4.23;0.93;;;7.00;99.00;;;;;;6213574;23;20147;-94
2021/03/05 15:00:21;;;;;;;1.83;0.53;;;6.90;98.40;;;;;;6213410;23;20279;-92
2021/03/05 15:02:46;;;;;;;3.07;0.70;;;6.90;98.10;;;;;;6213380;23;20158;-94
2021/03/05 15:05:12;;;;;;;4.43;0.83;;;6.80;97.30;;;;;;6213701;23;20156;-91
2021/03/05 15:07:38;;;;;;;5.77;0.90;;;6.90;97.30;;;;;;6213259;23;20179;-92
2021/03/05 15:10:05;;;;;;;4.57;1.10;;;6.80;96.80;;;;;;6212311;23;20515;-92
2021/03/05 15:12:30;;;;;;;6.80;1.20;;;6.80;96.90;;;;;;6213590;23;20239;-91
2021/03/05 15:14:56;;;;;;;4.83;1.10;;;6.90;98.30;;;;;;6213653;23;20192;-91
2021/03/05 15:17:22;;;;;;;6.10;1.50;;;6.90;97.40;;;;;;6213402;23;20163;-91
2021/03/05 15:19:47;;;;;;;6.17;1.57;;;7.00;97.30;;;;;;6213149;23;20198;-92
2021/03/05 15:22:13;;;;;;;7.13;1.80;;;7.00;98.50;;;;;;6215074;23;20155;-91
2021/03/05 15:24:38;;;;;;;5.40;1.00;;;7.00;99.70;;;;;;6215538;23;20159;-91
2021/03/05 15:27:04;;;;;;;3.70;0.67;;;6.80;99.90;;;;;;6214951;23;20155;-91
2021/03/05 15:29:30;;;;;;;5.70;1.83;;;6.90;99.90;;;;;;6214635;23;20515;-91
2021/03/05 15:31:55;;;;;;;5.80;1.27;;;6.90;99.10;;;;;;6214912;23;20206;-92
2021/03/05 15:34:21;;;;;;;3.33;0.90;;;7.00;99.90;;;;;;6214639;23;20584;-93
2021/03/05 15:36:47;;;;;;;6.13;1.20;;;6.90;99.90;;;;;;6214742;23;20175;-92
2021/03/05 15:39:13;;;;;;;11.40;2.47;;;7.00;99.90;;;;;;6214261;23;20595;-91
2021/03/05 15:41:38;;;;;;;6.33;1.87;;;6.80;99.90;;;;;;6214850;23;20499;-92
2021/03/05 15:44:04;;;;;;;3.87;1.20;;;6.90;99.90;;;;;;6215067;23;20152;-91
2021/03/05 15:46:30;;;;;;;4.33;1.00;;;6.80;99.90;;;;;;6214746;23;20251;-91
2021/03/05 15:48:56;;;;;;;8.37;1.33;;;6.80;99.90;;;;;;6215022;23;20182;-92
2021/03/05 15:51:21;;;;;;;5.93;1.10;;;6.70;99.90;;;;;;6214830;23;20533;-91
2021/03/05 15:53:47;;;;;;;2.50;0.90;;;6.60;99.90;;;;;;6214363;23;20573;-92
2021/03/05 15:56:13;;;;;;;2.40;0.60;;;6.50;99.90;;;;;;6213787;23;20229;-92
2021/03/05 15:58:39;;;;;;;6.27;1.47;;;6.50;99.90;;;;;;6215026;23;20179;-93
2021/03/05 16:01:05;;;;;;;8.63;2.47;;;6.50;99.90;;;;;;6215385;23;20159;-92
2021/03/05 16:03:30;;;;;;;7.33;1.90;;;6.40;99.90;;;;;;6215584;23;20156;-93
2021/03/05 16:05:56;;;;;;;11.30;3.43;;;6.30;99.90;;;;;;6214778;23;20154;-93
2021/03/05 16:08:22;;;;;;;9.03;3.13;;;6.20;99.90;;;;;;6214641;23;20160;-92
2021/03/05 16:10:48;;;;;;;11.10;2.30;;;6.20;99.90;;;;;;6216664;23;20683;-94
2021/03/05 16:13:14;;;;;;;5.65;1.80;;;6.30;99.90;;;;;;6214568;23;20788;-92
2021/03/05 16:15:39;;;;;;;4.23;1.03;;;6.20;99.90;;;;;;6214905;23;20195;-93
2021/03/05 16:18:05;;;;;;;8.47;1.67;;;6.10;99.90;;;;;;6215240;23;20190;-92
2021/03/05 16:20:31;;;;;;;4.87;1.03;;;6.00;99.90;;;;;;6214357;23;20171;-93
2021/03/05 16:22:56;;;;;;;3.63;1.03;;;6.00;99.90;;;;;;6214784;23;20169;-93
2021/03/05 16:25:25;;;;;;;5.73;1.73;;;6.00;99.90;;;;;;6216635;23;20179;-93
2021/03/05 16:27:51;;;;;;;5.97;1.50;;;6.10;99.90;;;;;;6218706;23;20159;-94
2021/03/05 16:30:18;;;;;;;9.27;1.80;;;6.00;99.90;;;;;;6214509;23;20207;-93
2021/03/05 16:32:43;;;;;;;6.07;1.43;;;6.00;99.90;;;;;;6214031;23;20152;-93
2021/03/05 16:35:12;;;;;;;4.20;1.10;;;5.90;99.90;;;;;;6215498;23;20183;-94
2021/03/05 16:37:39;;;;;;;5.63;1.07;;;5.90;99.90;;;;;;6215713;23;20242;-92
2021/03/05 16:40:06;;;;;;;3.70;1.23;;;5.90;99.90;;;;;;6214434;23;20179;-92
2021/03/05 16:42:31;;;;;;;4.40;1.50;;;5.90;99.90;;;;;;6214655;23;20186;-92
2021/03/05 16:44:58;;;;;;;5.17;1.20;;;6.00;99.90;;;;;;6215820;23;20149;-94
2021/03/05 16:47:27;;;;;;;4.80;1.23;;;5.90;99.90;;;;;;6215096;23;20611;-93
2021/03/05 16:50:22;;;;;;;;;;;;;;;;;;;;;
2021/03/05 16:52:55;;;;;;;4.50;1.60;;;5.70;99.90;;;;;;6216914;23;20243;-92
2021/03/05 16:55:22;;;;;;;4.20;1.33;;;5.60;99.90;;;;;;6215535;23;20154;-92
2021/03/05 16:57:51;;;;;;;3.10;1.10;;;5.50;99.90;;;;;;6215128;23;20155;-92
2021/03/05 17:00:19;;;;;;;4.57;1.20;;;5.50;99.90;;;;;;6218231;23;20226;-92
2021/03/05 17:02:45;;;;;;;5.50;1.30;;;5.50;99.90;;;;;;6216241;23;20389;-94
2021/03/05 17:05:12;;;;;;;5.60;1.50;;;5.50;99.90;;;;;;6215649;23;20531;-93
2021/03/05 17:07:39;;;;;;;3.50;1.57;;;5.50;99.90;;;;;;6216094;23;20179;-93
2021/03/05 17:10:08;;;;;;;5.40;1.90;;;5.40;99.90;;;;;;6215638;23;20179;-94
2021/03/05 17:12:34;;;;;;;10.27;3.40;;;5.30;99.90;;;;;;6216519;23;20230;-92
2021/03/05 17:15:00;;;;;;;8.87;2.23;;;5.30;99.90;;;;;;6216265;23;20154;-96
2021/03/05 17:17:26;;;;;;;5.40;2.07;;;5.20;99.90;;;;;;6215475;23;20480;-92
2021/03/05 17:20:25;;;;;;;5.00;1.57;;;5.10;99.90;;;;;;6215376;23;20198;-93
2021/03/05 17:22:53;;;;;;;4.63;1.47;;;5.00;99.90;;;;;;6214645;23;20165;-93
2021/03/05 17:25:20;;;;;;;5.73;1.87;;;5.00;99.90;;;;;;6214325;23;20190;-93
2021/03/05 17:27:45;;;;;;;7.77;2.10;;;4.90;99.90;;;;;;6215838;23;20151;-93
2021/03/05 17:30:12;;;;;;;5.20;2.90;;;4.90;99.90;;;;;;6214484;23;20210;-92
2021/03/05 17:32:38;;;;;;;5.30;1.97;;;4.90;99.90;;;;;;6214404;23;20158;-93
2021/03/05 17:35:05;;;;;;;7.93;2.40;;;4.90;99.90;;;;;;6213831;23;20152;-93
2021/03/05 17:37:31;;;;;;;25.63;9.43;;;4.80;99.90;;;;;;6213697;23;20177;-92
2021/03/05 17:39:57;;;;;;;17.43;7.87;;;4.80;99.90;;;;;;6213430;23;20192;-93
2021/03/05 17:42:23;;;;;;;13.13;4.97;;;4.90;99.90;;;;;;6213792;23;20153;-93
2021/03/05 17:44:49;;;;;;;7.80;2.53;;;4.80;99.90;;;;;;6213484;23;20147;-93
2021/03/05 17:47:14;;;;;;;9.97;2.50;;;4.70;99.90;;;;;;6213520;23;20143;-92
2021/03/05 17:49:40;;;;;;;8.17;2.90;;;4.60;99.90;;;;;;6213325;23;20299;-92
2021/03/05 17:52:06;;;;;;;7.87;3.30;;;4.60;99.90;;;;;;6213395;23;20502;-92
2021/03/05 17:54:31;;;;;;;6.10;2.50;;;4.60;99.90;;;;;;6214116;23;20214;-92
2021/03/05 17:56:57;;;;;;;6.03;2.30;;;4.50;99.90;;;;;;6216577;23;20544;-94
2021/03/05 17:59:23;;;;;;;6.43;2.33;;;4.50;99.90;;;;;;6214108;23;20215;-92
2021/03/05 18:01:49;;;;;;;6.60;2.40;;;4.50;99.90;;;;;;6214225;23;20178;-92
2021/03/05 18:04:14;;;;;;;7.10;2.60;;;4.50;99.90;;;;;;6215111;23;20850;-93
2021/03/05 18:06:40;;;;;;;6.23;2.70;;;4.50;99.90;;;;;;6214019;23;20502;-91
2021/03/05 18:09:06;;;;;;;8.07;3.10;;;4.30;99.90;;;;;;6213899;23;20176;-92
2021/03/05 18:11:31;;;;;;;13.57;4.40;;;4.30;99.90;;;;;;6213205;23;20241;-94
2021/03/05 18:13:57;;;;;;;17.80;9.60;;;4.30;99.90;;;;;;6213185;23;20490;-92
2021/03/05 18:16:25;;;;;;;16.33;7.27;;;4.20;99.90;;;;;;6214612;23;20151;-93
2021/03/05 18:19:17;;;;;;;14.50;7.03;;;4.20;99.90;;;;;;6214561;23;20185;-92
2021/03/05 18:21:43;;;;;;;21.80;11.93;;;4.10;99.90;;;;;;6213826;23;20523;-92
2021/03/05 18:24:10;;;;;;;20.97;10.93;;;4.00;99.90;;;;;;6213981;23;20235;-92
2021/03/05 18:26:36;;;;;;;23.87;12.73;;;3.90;99.90;;;;;;6213705;23;20239;-92
2021/03/05 18:29:01;;;;;;;41.90;20.97;;;3.90;99.90;;;;;;6213612;23;20179;-93
2021/03/05 18:31:27;;;;;;;36.10;17.27;;;3.90;99.90;;;;;;6212760;23;20195;-92
2021/03/05 18:33:53;;;;;;;33.53;18.03;;;3.80;99.90;;;;;;6214011;23;20204;-92
2021/03/05 18:36:19;;;;;;;19.70;11.63;;;3.80;99.90;;;;;;6214290;23;20183;-93
2021/03/05 18:38:45;;;;;;;20.33;9.50;;;3.80;99.90;;;;;;6214210;23;20190;-92
2021/03/05 18:41:11;;;;;;;13.90;7.90;;;3.70;99.90;;;;;;6214936;23;20215;-92
2021/03/05 18:43:37;;;;;;;11.50;6.43;;;3.70;99.90;;;;;;6215221;23;20158;-92
2021/03/05 18:46:03;;;;;;;10.77;5.50;;;3.60;99.90;;;;;;6217524;23;20152;-93
2021/03/05 18:48:29;;;;;;;13.90;7.50;;;3.60;99.90;;;;;;6216998;23;20171;-92
2021/03/05 18:50:55;;;;;;;12.63;6.80;;;3.50;99.90;;;;;;6215376;23;20230;-92
2021/03/05 18:53:22;;;;;;;12.23;5.60;;;3.50;99.90;;;;;;6215461;23;20158;-92
2021/03/05 18:55:48;;;;;;;20.10;4.43;;;3.40;99.90;;;;;;6216189;23;20163;-91
2021/03/05 18:58:14;;;;;;;11.03;4.80;;;3.40;99.90;;;;;;6219002;23;20183;-91
2021/03/05 19:00:40;;;;;;;9.07;3.70;;;3.30;99.90;;;;;;6217217;23;20186;-92
2021/03/05 19:03:06;;;;;;;11.40;4.93;;;3.20;99.90;;;;;;6219848;23;20155;-92
2021/03/05 19:05:31;;;;;;;9.33;3.80;;;3.20;99.90;;;;;;6218367;23;20183;-92
2021/03/05 19:07:57;;;;;;;7.27;3.23;;;3.20;99.90;;;;;;6218332;23;20211;-94
2021/03/05 19:10:23;;;;;;;7.83;2.87;;;3.20;99.90;;;;;;6218718;23;20205;-90
2021/03/05 19:12:49;;;;;;;6.13;2.33;;;3.10;99.90;;;;;;6220442;23;20158;-92
2021/03/05 19:15:16;;;;;;;8.77;2.70;;;3.10;99.90;;;;;;6221484;23;20156;-91
2021/03/05 19:17:42;;;;;;;6.60;2.17;;;3.10;99.90;;;;;;6226440;23;20162;-92
2021/03/05 19:20:14;;;;;;;5.50;2.50;;;3.10;99.90;;;;;;6226683;23;20191;-93
2021/03/05 19:22:40;;;;;;;6.00;2.17;;;3.10;99.90;;;;;;6227873;23;20159;-92
2021/03/05 19:25:08;;;;;;;5.53;2.30;;;3.00;99.90;;;;;;6227218;23;20151;-93
2021/03/05 19:27:34;;;;;;;7.07;3.20;;;2.90;99.90;;;;;;6230253;23;20183;-92
2021/03/05 19:30:03;;;;;;;6.30;2.40;;;3.00;99.90;;;;;;6231582;23;20191;-92
2021/03/05 19:32:29;;;;;;;6.93;2.97;;;3.00;99.90;;;;;;6231753;23;20155;-92
2021/03/05 19:34:55;;;;;;;7.77;2.63;;;3.00;99.90;;;;;;6206868;23;20179;-92
2021/03/05 19:37:21;;;;;;;9.27;3.67;;;2.90;99.90;;;;;;6232673;23;20179;-92
2021/03/05 19:39:47;;;;;;;6.50;2.10;;;2.80;99.90;;;;;;6233504;23;20218;-91
2021/03/05 19:42:14;;;;;;;15.37;5.20;;;2.80;99.90;;;;;;6235312;23;20234;-92
2021/03/05 19:51:06;;;;;;;6.67;2.80;;;2.70;99.90;;;;;;6189105;23;20230;-82
2021/03/05 19:53:32;;;;;;;8.20;3.40;;;2.60;99.90;;;;;;6186008;23;20592;-82
2021/03/05 19:55:58;;;;;;;6.17;2.37;;;2.60;99.90;;;;;;6185256;23;20187;-81
2021/03/05 19:58:23;;;;;;;5.50;2.00;;;2.60;99.90;;;;;;6183466;23;20191;-82
2021/03/05 20:00:49;;;;;;;5.53;1.90;;;2.60;99.90;;;;;;6184316;23;20187;-82
2021/03/05 20:03:38;;;;;;;6.53;2.13;;;2.50;99.90;;;;;;6184720;23;20164;-81
2021/03/05 20:06:04;;;;;;;8.63;2.23;;;2.40;99.90;;;;;;6186219;23;20239;-83
2021/03/05 20:08:32;;;;;;;5.30;2.00;;;2.50;99.90;;;;;;6183626;23;20160;-80
2021/03/05 20:10:57;;;;;;;4.23;1.40;;;2.50;99.90;;;;;;6186750;23;20184;-83
2021/03/05 20:13:23;;;;;;;4.63;1.63;;;2.50;99.90;;;;;;6186229;23;20148;-84
2021/03/05 20:15:58;;;;;;;7.77;2.27;;;2.40;99.90;;;;;;6185441;23;20164;-82
2021/03/05 20:18:23;;;;;;;5.27;2.37;;;2.30;99.90;;;;;;6187764;23;20203;-82
2021/03/05 20:20:50;;;;;;;8.80;3.43;;;2.30;99.90;;;;;;6185639;23;20172;-81
2021/03/05 20:23:15;;;;;;;6.67;2.03;;;2.30;99.90;;;;;;6191006;23;20157;-83
2021/03/05 20:25:41;;;;;;;10.73;5.40;;;2.30;99.90;;;;;;6188112;23;20472;-82
2021/03/05 20:28:08;;;;;;;11.73;7.43;;;2.30;99.90;;;;;;6187005;23;20596;-82
2021/03/05 20:30:34;;;;;;;7.90;3.57;;;2.30;99.90;;;;;;6191994;23;20159;-83
2021/03/05 20:33:00;;;;;;;7.87;2.90;;;2.20;99.90;;;;;;6191162;23;20152;-83
2021/03/05 20:35:27;;;;;;;5.73;2.10;;;2.20;99.90;;;;;;6189677;23;20152;-83
2021/03/05 20:37:53;;;;;;;5.17;1.90;;;2.10;99.90;;;;;;6189302;23;20167;-83
2021/03/05 20:40:19;;;;;;;8.33;2.73;;;2.10;99.90;;;;;;6191906;23;20220;-83
2021/03/05 20:42:44;;;;;;;6.50;1.50;;;2.10;99.90;;;;;;6190413;23;20662;-83
2021/03/05 20:45:10;;;;;;;4.03;1.23;;;2.10;99.90;;;;;;6192884;23;20165;-83
2021/03/05 20:47:36;;;;;;;7.80;2.90;;;2.20;99.90;;;;;;6193914;23;20493;-81
2021/03/05 20:50:02;;;;;;;7.57;2.97;;;2.10;99.90;;;;;;6187295;23;20208;-82
2021/03/05 20:52:28;;;;;;;10.97;4.50;;;2.10;99.90;;;;;;6186141;23;20636;-80
2021/03/05 20:54:53;;;;;;;12.17;4.87;;;2.00;99.90;;;;;;6185016;23;20162;-82
2021/03/05 20:57:20;;;;;;;13.63;4.27;;;2.00;99.90;;;;;;6185790;23;20167;-81
2021/03/05 20:59:46;;;;;;;14.03;4.80;;;1.90;99.90;;;;;;6185253;23;20228;-81
2021/03/05 21:02:12;;;;;;;14.37;5.70;;;1.90;99.90;;;;;;6186595;23;20256;-81
2021/03/05 21:04:38;;;;;;;11.73;4.03;;;1.80;99.90;;;;;;6187170;23;20149;-81
2021/03/05 21:07:06;;;;;;;17.37;4.17;;;1.80;99.90;;;;;;6188741;23;20160;-83
2021/03/05 21:09:32;;;;;;;10.73;3.73;;;1.90;99.90;;;;;;6187239;23;20600;-83
2021/03/05 21:11:58;;;;;;;9.17;3.93;;;1.90;99.90;;;;;;6186678;23;20498;-83
2021/03/05 21:14:24;;;;;;;7.47;2.80;;;1.80;99.90;;;;;;6188358;23;20219;-81
2021/03/05 21:16:50;;;;;;;8.97;2.90;;;1.80;99.90;;;;;;6185987;23;20600;-81
2021/03/05 21:19:15;;;;;;;5.70;2.37;;;1.80;99.90;;;;;;6184510;23;20680;-81
2021/03/05 21:21:41;;;;;;;8.03;2.40;;;1.70;99.90;;;;;;6186961;23;20172;-81
2021/03/05 21:24:07;;;;;;;6.77;1.63;;;1.80;99.90;;;;;;6185137;23;20152;-82
2021/03/05 21:26:33;;;;;;;10.83;3.77;;;1.70;99.90;;;;;;6185052;23;20228;-81
2021/03/05 21:28:59;;;;;;;11.87;3.93;;;1.70;99.90;;;;;;6188894;23;20164;-81
2021/03/05 21:31:25;;;;;;;11.37;4.23;;;1.70;99.90;;;;;;6188326;23;20180;-82
2021/03/05 21:33:51;;;;;;;12.27;3.43;;;1.70;99.90;;;;;;6190686;23;20180;-82
2021/03/05 21:36:17;;;;;;;9.73;3.00;;;1.70;99.90;;;;;;6191990;23;20156;-83
2021/03/05 21:38:43;;;;;;;7.60;2.60;;;1.60;99.90;;;;;;6196042;23;20486;-81
2021/03/05 21:41:08;;;;;;;4.57;2.00;;;1.70;99.90;;;;;;6193280;23;20183;-82
2021/03/05 21:43:34;;;;;;;8.00;3.40;;;1.50;99.90;;;;;;6188829;23;20156;-82
2021/03/05 21:46:00;;;;;;;8.57;3.83;;;1.50;99.90;;;;;;6186349;23;20159;-81
2021/03/05 21:48:25;;;;;;;10.83;4.20;;;1.50;99.90;;;;;;6184859;23;20160;-82
2021/03/05 21:50:51;;;;;;;10.53;5.13;;;1.60;99.90;;;;;;6191595;23;20238;-82
2021/03/05 21:53:17;;;;;;;14.33;5.70;;;1.50;99.90;;;;;;6192994;23;20160;-81
2021/03/05 21:55:42;;;;;;;10.07;4.13;;;1.50;99.90;;;;;;6194366;23;20616;-83
2021/03/05 21:58:08;;;;;;;6.37;2.27;;;1.50;99.90;;;;;;6193619;23;20654;-80
2021/03/05 22:00:35;;;;;;;6.43;2.10;;;1.50;99.90;;;;;;6196841;23;20164;-82
2021/03/05 22:03:00;;;;;;;6.70;2.27;;;1.40;99.90;;;;;;6192068;23;20255;-82
2021/03/05 22:05:26;;;;;;;4.60;1.70;;;1.40;99.90;;;;;;6192397;23;20160;-83
2021/03/05 22:07:52;;;;;;;8.47;2.23;;;1.30;99.90;;;;;;6194645;23;20167;-83
2021/03/05 22:10:18;;;;;;;9.27;1.87;;;1.30;99.90;;;;;;6192362;23;20239;-82
2021/03/05 22:12:44;;;;;;;6.93;1.90;;;1.20;99.90;;;;;;6194556;23;20152;-82
2021/03/05 22:15:10;;;;;;;5.43;1.93;;;1.20;99.90;;;;;;6188487;23;20167;-81
2021/03/05 22:17:36;;;;;;;6.60;2.00;;;1.20;99.90;;;;;;6187403;23;20446;-82
2021/03/05 22:20:03;;;;;;;6.47;2.27;;;1.10;99.90;;;;;;6192379;23;20184;-82
2021/03/05 22:22:29;;;;;;;6.43;2.20;;;1.10;99.90;;;;;;6174161;23;20262;-83
2021/03/05 22:24:55;;;;;;;5.77;2.20;;;1.00;99.90;;;;;;6197661;23;20234;-83
2021/03/05 22:27:21;;;;;;;6.13;1.93;;;1.00;99.90;;;;;;6193315;23;20624;-82
2021/03/05 22:29:47;;;;;;;6.30;2.17;;;1.00;99.90;;;;;;6194522;23;20188;-83
2021/03/05 22:32:12;;;;;;;7.20;1.90;;;1.00;99.90;;;;;;6185936;23;20191;-81
2021/03/05 22:34:38;;;;;;;11.33;2.00;;;0.80;99.90;;;;;;6183924;23;20604;-82
2021/03/05 22:37:04;;;;;;;7.17;1.47;;;0.80;99.90;;;;;;6184746;23;20182;-81
2021/03/05 22:39:29;;;;;;;7.43;1.83;;;0.80;99.90;;;;;;6183833;23;20187;-82
2021/03/05 22:41:55;;;;;;;8.47;2.53;;;0.80;99.90;;;;;;6184170;23;20230;-83
2021/03/05 22:44:20;;;;;;;6.37;1.80;;;0.80;99.90;;;;;;6184846;23;20195;-81
2021/03/05 22:46:47;;;;;;;8.40;2.20;;;0.80;99.90;;;;;;6185069;23;20596;-81
2021/03/05 22:49:12;;;;;;;5.90;2.10;;;0.70;99.90;;;;;;6185205;23;20166;-81
2021/03/05 22:51:38;;;;;;;7.03;2.90;;;0.60;99.90;;;;;;6185447;23;20211;-81
2021/03/05 22:54:04;;;;;;;12.40;3.93;;;0.50;99.90;;;;;;6185132;23;20156;-82
2021/03/05 22:56:30;;;;;;;8.10;2.30;;;0.40;99.90;;;;;;6184899;23;20160;-82
2021/03/05 22:58:55;;;;;;;6.77;2.30;;;0.50;99.90;;;;;;6184180;23;20176;-82
2021/03/05 23:01:21;;;;;;;6.73;2.10;;;0.60;99.90;;;;;;6184619;23;20617;-82
2021/03/05 23:03:46;;;;;;;7.93;2.20;;;0.70;99.90;;;;;;6185039;23;20164;-81
2021/03/05 23:06:12;;;;;;;6.83;1.87;;;0.70;99.90;;;;;;6184630;23;20156;-81
2021/03/05 23:08:38;;;;;;;7.60;2.17;;;0.70;99.90;;;;;;6184047;23;20191;-82
2021/03/05 23:11:03;;;;;;;8.97;2.37;;;0.70;99.90;;;;;;6183505;23;20176;-83
2021/03/05 23:13:29;;;;;;;7.07;1.90;;;0.60;99.90;;;;;;6183623;23;20191;-82
2021/03/05 23:15:54;;;;;;;10.33;2.37;;;0.60;99.90;;;;;;6183280;23;20157;-82
2021/03/05 23:18:20;;;;;;;6.80;1.60;;;0.50;99.90;;;;;;6183285;23;20259;-81
2021/03/05 23:20:48;;;;;;;6.80;1.90;;;0.50;99.90;;;;;;6185473;23;20640;-83
2021/03/05 23:23:17;;;;;;;5.47;1.67;;;0.60;99.90;;;;;;6186439;23;20152;-82
2021/03/05 23:25:44;;;;;;;6.03;1.80;;;0.60;99.90;;;;;;6188070;23;20152;-83
2021/03/05 23:28:19;;;;;;;8.07;1.63;;;0.50;99.90;;;;;;6191030;23;20204;-83
